sensor_id;sensor_type;location;lat;lon;timestamp;pressure;altitude;pressure_sealevel;temperature;humidity
21129;BME280;10722;51.910;8.352;2022-11-18T00:01:26;99010.84;;;7.43;100.00
21129;BME280;10722;51.910;8.352;2022-11-18T00:04:12;99010.84;;;7.46;100.00
21129;BME280;10722;51.910;8.352;2022-11-18T00:06:58;99016.81;;;7.40;100.00
21129;BME280;10722;51.910;8.352;2022-11-18T00:09:44;99015.09;;;7.37;100.00
21129;BME280;10722;51.910;8.352;2022-11-18T00:12:29;99019.38;;;7.28;100.00
21129;BME280;10722;51.910;8.352;2022-11-18T00:15:14;99020.25;;;7.27;100.00
21129;BME280;10722;51.910;8.352;2022-11-18T00:17:59;99011.69;;;7.38;100.00
21129;BME280;10722;51.910;8.352;2022-11-18T00:20:44;99011.69;;;7.41;100.00
21129;BME280;10722;51.910;8.352;2022-11-18T00:23:30;99013.41;;;7.39;100.00
21129;BME280;10722;51.910;8.352;2022-11-18T00:26:15;99016.81;;;7.37;100.00
21129;BME280;10722;51.910;8.352;2022-11-18T00:29:01;99009.09;;;7.31;100.00
21129;BME280;10722;51.910;8.352;2022-11-18T00:31:46;99023.72;;;7.38;100.00
21129;BME280;10722;51.910;8.352;2022-11-18T00:34:32;99011.63;;;7.20;100.00
21129;BME280;10722;51.910;8.352;2022-11-18T00:37:17;99019.34;;;7.23;100.00
21129;BME280;10722;51.910;8.352;2022-11-18T00:40:03;99021.91;;;7.20;100.00
21129;BME280;10722;51.910;8.352;2022-11-18T00:42:49;99021.94;;;7.25;100.00
21129;BME280;10722;51.910;8.352;2022-11-18T00:45:34;99021.91;;;7.17;100.00
21129;BME280;10722;51.910;8.352;2022-11-18T00:48:20;99028.78;;;7.19;100.00
21129;BME280;10722;51.910;8.352;2022-11-18T00:51:25;99036.50;;;7.23;100.00
21129;BME280;10722;51.910;8.352;2022-11-18T00:54:11;99045.91;;;7.21;100.00
21129;BME280;10722;51.910;8.352;2022-11-18T00:56:56;99051.09;;;7.27;100.00
21129;BME280;10722;51.910;8.352;2022-11-18T00:59:41;99057.91;;;7.15;100.00
21129;BME280;10722;51.910;8.352;2022-11-18T01:02:26;99057.88;;;7.09;100.00
21129;BME280;10722;51.910;8.352;2022-11-18T01:05:11;99060.50;;;7.15;100.00
21129;BME280;10722;51.910;8.352;2022-11-18T01:07:56;99057.13;;;7.30;100.00
21129;BME280;10722;51.910;8.352;2022-11-18T01:10:42;99057.13;;;7.30;100.00
21129;BME280;10722;51.910;8.352;2022-11-18T01:13:27;99058.81;;;7.25;100.00
21129;BME280;10722;51.910;8.352;2022-11-18T01:16:17;99067.34;;;7.16;100.00
21129;BME280;10722;51.910;8.352;2022-11-18T01:19:03;99069.97;;;7.29;100.00
21129;BME280;10722;51.910;8.352;2022-11-18T01:21:49;99076.75;;;7.10;100.00
21129;BME280;10722;51.910;8.352;2022-11-18T01:24:34;99078.38;;;6.97;100.00
21129;BME280;10722;51.910;8.352;2022-11-18T01:27:20;99086.97;;;6.99;100.00
21129;BME280;10722;51.910;8.352;2022-11-18T01:30:06;99085.22;;;6.93;100.00
21129;BME280;10722;51.910;8.352;2022-11-18T01:32:51;99090.41;;;7.03;100.00
21129;BME280;10722;51.910;8.352;2022-11-18T01:35:41;99092.13;;;6.99;100.00
21129;BME280;10722;51.910;8.352;2022-11-18T01:38:27;99096.28;;;6.80;100.00
21129;BME280;10722;51.910;8.352;2022-11-18T01:41:12;99092.81;;;6.77;100.00
21129;BME280;10722;51.910;8.352;2022-11-18T01:44:03;99095.47;;;6.84;100.00
21129;BME280;10722;51.910;8.352;2022-11-18T01:46:49;99086.09;;;7.00;100.00
21129;BME280;10722;51.910;8.352;2022-11-18T01:49:34;99080.19;;;7.16;100.00
21129;BME280;10722;51.910;8.352;2022-11-18T01:52:20;99077.59;;;7.10;100.00
21129;BME280;10722;51.910;8.352;2022-11-18T01:55:10;99065.44;;;6.79;100.00
21129;BME280;10722;51.910;8.352;2022-11-18T01:58:10;99064.56;;;6.81;100.00
21129;BME280;10722;51.910;8.352;2022-11-18T02:00:57;99063.69;;;6.74;100.00
21129;BME280;10722;51.910;8.352;2022-11-18T02:03:44;99067.06;;;6.66;100.00
21129;BME280;10722;51.910;8.352;2022-11-18T02:06:30;99073.06;;;6.65;100.00
21129;BME280;10722;51.910;8.352;2022-11-18T02:09:16;99075.63;;;6.68;100.00
21129;BME280;10722;51.910;8.352;2022-11-18T02:12:02;99079.94;;;6.70;100.00
21129;BME280;10722;51.910;8.352;2022-11-18T02:14:47;99095.28;;;6.64;100.00
21129;BME280;10722;51.910;8.352;2022-11-18T02:17:44;99096.13;;;6.57;100.00
21129;BME280;10722;51.910;8.352;2022-11-18T02:20:45;99099.50;;;6.53;100.00
21129;BME280;10722;51.910;8.352;2022-11-18T02:29:24;99117.19;;;6.19;100.00
21129;BME280;10722;51.910;8.352;2022-11-18T02:32:12;99125.84;;;6.29;100.00
21129;BME280;10722;51.910;8.352;2022-11-18T02:35:15;99123.03;;;6.03;100.00
21129;BME280;10722;51.910;8.352;2022-11-18T02:41:08;99119.50;;;5.93;100.00
21129;BME280;10722;51.910;8.352;2022-11-18T02:43:58;99128.09;;;5.97;100.00
21129;BME280;10722;51.910;8.352;2022-11-18T02:46:48;99131.69;;;6.11;100.00
21129;BME280;10722;51.910;8.352;2022-11-18T02:49:38;99123.22;;;6.24;100.00
21129;BME280;10722;51.910;8.352;2022-11-18T02:52:26;99117.25;;;6.22;100.00
21129;BME280;10722;51.910;8.352;2022-11-18T02:55:13;99128.22;;;6.09;100.00
21129;BME280;10722;51.910;8.352;2022-11-18T02:58:00;99123.06;;;6.07;100.00
21129;BME280;10722;51.910;8.352;2022-11-18T03:00:58;99127.31;;;6.04;100.00
21129;BME280;10722;51.910;8.352;2022-11-18T03:03:44;99128.28;;;6.15;100.00
21129;BME280;10722;51.910;8.352;2022-11-18T03:06:35;99124.94;;;6.24;100.00
21129;BME280;10722;51.910;8.352;2022-11-18T03:09:28;99126.66;;;6.25;100.00
21129;BME280;10722;51.910;8.352;2022-11-18T03:15:15;99141.00;;;6.04;100.00
21129;BME280;10722;51.910;8.352;2022-11-18T03:18:19;99144.53;;;6.11;100.00
21129;BME280;10722;51.910;8.352;2022-11-18T03:21:15;99146.94;;;5.99;100.00
21129;BME280;10722;51.910;8.352;2022-11-18T03:24:10;99150.97;;;5.78;100.00
21129;BME280;10722;51.910;8.352;2022-11-18T03:27:05;99152.91;;;5.95;100.00
21129;BME280;10722;51.910;8.352;2022-11-18T03:29:59;99151.28;;;6.03;100.00
21129;BME280;10722;51.910;8.352;2022-11-18T03:32:55;99152.91;;;5.96;100.00
21129;BME280;10722;51.910;8.352;2022-11-18T03:35:44;99159.50;;;5.76;100.00
21129;BME280;10722;51.910;8.352;2022-11-18T03:38:35;99149.72;;;5.47;100.00
21129;BME280;10722;51.910;8.352;2022-11-18T03:41:23;99163.66;;;5.66;100.00
21129;BME280;10722;51.910;8.352;2022-11-18T03:44:12;99165.47;;;5.76;100.00
21129;BME280;10722;51.910;8.352;2022-11-18T03:47:05;99164.72;;;5.83;100.00
21129;BME280;10722;51.910;8.352;2022-11-18T03:49:57;99170.03;;;5.97;100.00
21129;BME280;10722;51.910;8.352;2022-11-18T03:52:45;99180.22;;;5.93;100.00
21129;BME280;10722;51.910;8.352;2022-11-18T03:55:36;99178.41;;;5.84;100.00
21129;BME280;10722;51.910;8.352;2022-11-18T03:58:32;99186.03;;;5.78;100.00
21129;BME280;10722;51.910;8.352;2022-11-18T04:01:47;99190.28;;;5.76;100.00
21129;BME280;10722;51.910;8.352;2022-11-18T04:04:35;99188.75;;;5.90;100.00
21129;BME280;10722;51.910;8.352;2022-11-18T04:07:29;99202.56;;;5.98;100.00
21129;BME280;10722;51.910;8.352;2022-11-18T04:10:18;99200.84;;;5.97;100.00
21129;BME280;10722;51.910;8.352;2022-11-18T04:13:13;99207.53;;;5.88;100.00
21129;BME280;10722;51.910;8.352;2022-11-18T04:16:01;99211.09;;;5.96;100.00
21129;BME280;10722;51.910;8.352;2022-11-18T04:18:45;99215.28;;;5.92;100.00
21129;BME280;10722;51.910;8.352;2022-11-18T04:21:30;99226.31;;;5.83;100.00
21129;BME280;10722;51.910;8.352;2022-11-18T04:24:16;99216.91;;;5.84;100.00
21129;BME280;10722;51.910;8.352;2022-11-18T04:27:01;99222.09;;;5.89;100.00
21129;BME280;10722;51.910;8.352;2022-11-18T04:29:47;99224.78;;;5.95;100.00
21129;BME280;10722;51.910;8.352;2022-11-18T04:32:32;99236.75;;;5.96;100.00
21129;BME280;10722;51.910;8.352;2022-11-18T04:35:17;99236.81;;;6.00;100.00
21129;BME280;10722;51.910;8.352;2022-11-18T04:38:03;99239.22;;;5.91;100.00
21129;BME280;10722;51.910;8.352;2022-11-18T04:40:49;99249.50;;;5.90;100.00
21129;BME280;10722;51.910;8.352;2022-11-18T04:43:34;99245.25;;;5.92;100.00
21129;BME280;10722;51.910;8.352;2022-11-18T04:46:19;99240.84;;;5.83;100.00
21129;BME280;10722;51.910;8.352;2022-11-18T04:49:04;99249.44;;;5.87;100.00
21129;BME280;10722;51.910;8.352;2022-11-18T04:51:50;99241.72;;;5.85;100.00
21129;BME280;10722;51.910;8.352;2022-11-18T04:54:36;99243.56;;;5.94;100.00
21129;BME280;10722;51.910;8.352;2022-11-18T04:57:21;99252.72;;;5.76;100.00
21129;BME280;10722;51.910;8.352;2022-11-18T05:00:06;99245.91;;;5.78;100.00
21129;BME280;10722;51.910;8.352;2022-11-18T05:02:52;99256.19;;;5.80;100.00
21129;BME280;10722;51.910;8.352;2022-11-18T05:05:36;99263.88;;;5.78;100.00
21129;BME280;10722;51.910;8.352;2022-11-18T05:08:22;99260.50;;;5.82;100.00
21129;BME280;10722;51.910;8.352;2022-11-18T05:11:07;99261.31;;;5.80;100.00
21129;BME280;10722;51.910;8.352;2022-11-18T05:13:53;99257.84;;;5.76;100.00
21129;BME280;10722;51.910;8.352;2022-11-18T05:16:38;99261.28;;;5.77;100.00
21129;BME280;10722;51.910;8.352;2022-11-18T05:19:24;99266.75;;;5.98;100.00
21129;BME280;10722;51.910;8.352;2022-11-18T05:22:10;99269.41;;;6.06;100.00
21129;BME280;10722;51.910;8.352;2022-11-18T05:24:55;99270.81;;;5.85;100.00
21129;BME280;10722;51.910;8.352;2022-11-18T05:27:40;99263.63;;;5.60;100.00
21129;BME280;10722;51.910;8.352;2022-11-18T05:30:26;99265.56;;;5.75;100.00
21129;BME280;10722;51.910;8.352;2022-11-18T05:33:12;99268.25;;;5.85;100.00
21129;BME280;10722;51.910;8.352;2022-11-18T05:35:56;99265.06;;;6.00;100.00
21129;BME280;10722;51.910;8.352;2022-11-18T05:38:42;99263.34;;;6.01;100.00
21129;BME280;10722;51.910;8.352;2022-11-18T05:41:27;99265.81;;;5.93;100.00
21129;BME280;10722;51.910;8.352;2022-11-18T05:44:13;99259.00;;;5.97;100.00
21129;BME280;10722;51.910;8.352;2022-11-18T05:46:58;99264.03;;;5.89;100.00
21129;BME280;10722;51.910;8.352;2022-11-18T05:49:43;99263.94;;;5.81;100.00
21129;BME280;10722;51.910;8.352;2022-11-18T05:52:28;99257.03;;;5.77;100.00
21129;BME280;10722;51.910;8.352;2022-11-18T05:55:15;99262.91;;;5.70;100.00
21129;BME280;10722;51.910;8.352;2022-11-18T05:58:01;99267.22;;;5.74;100.00
21129;BME280;10722;51.910;8.352;2022-11-18T06:00:47;99276.44;;;5.60;100.00
21129;BME280;10722;51.910;8.352;2022-11-18T06:03:36;99282.25;;;5.48;100.00
21129;BME280;10722;51.910;8.352;2022-11-18T06:06:23;99293.50;;;5.55;100.00
21129;BME280;10722;51.910;8.352;2022-11-18T06:09:09;99300.44;;;5.62;100.00
21129;BME280;10722;51.910;8.352;2022-11-18T06:11:55;99302.91;;;5.57;100.00
21129;BME280;10722;51.910;8.352;2022-11-18T06:14:47;99310.63;;;5.57;100.00
21129;BME280;10722;51.910;8.352;2022-11-18T06:17:46;99319.16;;;5.55;100.00
21129;BME280;10722;51.910;8.352;2022-11-18T06:20:37;99320.88;;;5.56;100.00
21129;BME280;10722;51.910;8.352;2022-11-18T06:23:26;99326.81;;;5.53;100.00
21129;BME280;10722;51.910;8.352;2022-11-18T06:26:14;99337.16;;;5.58;100.00
21129;BME280;10722;51.910;8.352;2022-11-18T06:29:00;99338.06;;;5.63;100.00
21129;BME280;10722;51.910;8.352;2022-11-18T06:31:45;99355.16;;;5.61;100.00
21129;BME280;10722;51.910;8.352;2022-11-18T06:34:30;99349.38;;;5.76;100.00
21129;BME280;10722;51.910;8.352;2022-11-18T06:37:20;99361.41;;;5.78;100.00
21129;BME280;10722;51.910;8.352;2022-11-18T06:40:06;99369.22;;;5.88;100.00
21129;BME280;10722;51.910;8.352;2022-11-18T06:42:51;99368.41;;;5.89;100.00
21129;BME280;10722;51.910;8.352;2022-11-18T06:45:37;99376.03;;;5.85;100.00
21129;BME280;10722;51.910;8.352;2022-11-18T06:48:22;99378.69;;;5.90;100.00
21129;BME280;10722;51.910;8.352;2022-11-18T06:51:08;99377.09;;;5.95;100.00
21129;BME280;10722;51.910;8.352;2022-11-18T06:53:53;99384.75;;;5.94;100.00
21129;BME280;10722;51.910;8.352;2022-11-18T06:56:38;99391.69;;;5.98;100.00
21129;BME280;10722;51.910;8.352;2022-11-18T06:59:23;99401.34;;;6.14;100.00
21129;BME280;10722;51.910;8.352;2022-11-18T07:02:09;99411.66;;;6.19;100.00
21129;BME280;10722;51.910;8.352;2022-11-18T07:04:54;99414.13;;;6.11;100.00
21129;BME280;10722;51.910;8.352;2022-11-18T07:07:39;99418.38;;;6.11;100.00
21129;BME280;10722;51.910;8.352;2022-11-18T07:10:26;99427.06;;;6.19;100.00
21129;BME280;10722;51.910;8.352;2022-11-18T07:13:13;99434.84;;;6.25;100.00
21129;BME280;10722;51.910;8.352;2022-11-18T07:16:02;99448.63;;;6.28;100.00
21129;BME280;10722;51.910;8.352;2022-11-18T07:18:49;99447.72;;;6.26;100.00
21129;BME280;10722;51.910;8.352;2022-11-18T07:21:35;99452.91;;;6.29;100.00
21129;BME280;10722;51.910;8.352;2022-11-18T07:24:20;99463.25;;;6.36;100.00
21129;BME280;10722;51.910;8.352;2022-11-18T07:27:05;99467.75;;;6.49;100.00
21129;BME280;10722;51.910;8.352;2022-11-18T07:29:51;99473.72;;;6.49;100.00
21129;BME280;10722;51.910;8.352;2022-11-18T07:32:36;99476.25;;;6.45;100.00
21129;BME280;10722;51.910;8.352;2022-11-18T07:35:21;99479.06;;;6.62;100.00
21129;BME280;10722;51.910;8.352;2022-11-18T07:38:06;99479.03;;;6.60;100.00
21129;BME280;10722;51.910;8.352;2022-11-18T07:40:52;99476.63;;;6.76;100.00
21129;BME280;10722;51.910;8.352;2022-11-18T07:43:37;99488.59;;;6.70;100.00
21129;BME280;10722;51.910;8.352;2022-11-18T07:46:28;99490.34;;;6.74;100.00
21129;BME280;10722;51.910;8.352;2022-11-18T07:49:45;99490.59;;;6.93;100.00
21129;BME280;10722;51.910;8.352;2022-11-18T07:52:30;99496.50;;;6.84;100.00
21129;BME280;10722;51.910;8.352;2022-11-18T07:55:15;99491.34;;;6.84;100.00
21129;BME280;10722;51.910;8.352;2022-11-18T07:58:00;99503.53;;;7.01;100.00
21129;BME280;10722;51.910;8.352;2022-11-18T08:08:13;99540.50;;;6.45;100.00
21129;BME280;10722;51.910;8.352;2022-11-18T08:11:01;99543.75;;;6.35;100.00
21129;BME280;10722;51.910;8.352;2022-11-18T08:13:46;99545.50;;;6.37;100.00
21129;BME280;10722;51.910;8.352;2022-11-18T08:16:32;99556.75;;;6.45;100.00
21129;BME280;10722;51.910;8.352;2022-11-18T08:19:17;99561.91;;;6.47;100.00
21129;BME280;10722;51.910;8.352;2022-11-18T08:22:04;99567.16;;;6.55;100.00
21129;BME280;10722;51.910;8.352;2022-11-18T08:24:49;99562.94;;;6.58;100.00
21129;BME280;10722;51.910;8.352;2022-11-18T08:27:34;99559.59;;;6.64;100.00
21129;BME280;10722;51.910;8.352;2022-11-18T08:30:20;99561.47;;;6.74;100.00
21129;BME280;10722;51.910;8.352;2022-11-18T08:33:05;99564.16;;;6.82;100.00
21129;BME280;10722;51.910;8.352;2022-11-18T08:35:50;99558.22;;;6.87;100.00
21129;BME280;10722;51.910;8.352;2022-11-18T08:38:36;99558.28;;;6.90;100.00
21129;BME280;10722;51.910;8.352;2022-11-18T08:41:31;99546.31;;;6.94;100.00
21129;BME280;10722;51.910;8.352;2022-11-18T08:44:17;99556.56;;;6.92;100.00
21129;BME280;10722;51.910;8.352;2022-11-18T08:47:02;99556.63;;;6.97;100.00
21129;BME280;10722;51.910;8.352;2022-11-18T08:49:48;99559.31;;;7.06;100.00
21129;BME280;10722;51.910;8.352;2022-11-18T08:52:33;99567.88;;;7.05;100.00
21129;BME280;10722;51.910;8.352;2022-11-18T08:55:19;99568.00;;;7.14;100.00
21129;BME280;10722;51.910;8.352;2022-11-18T08:58:04;99576.00;;;7.36;100.00
21129;BME280;10722;51.910;8.352;2022-11-18T09:00:49;99571.63;;;7.32;100.00
21129;BME280;10722;51.910;8.352;2022-11-18T09:03:35;99577.72;;;7.35;100.00
21129;BME280;10722;51.910;8.352;2022-11-18T09:06:21;99577.50;;;7.20;100.00
21129;BME280;10722;51.910;8.352;2022-11-18T09:09:07;99578.41;;;7.22;100.00
21129;BME280;10722;51.910;8.352;2022-11-18T09:11:52;99576.88;;;7.38;100.00
21129;BME280;10722;51.910;8.352;2022-11-18T09:14:37;99585.31;;;7.28;100.00
21129;BME280;10722;51.910;8.352;2022-11-18T09:17:42;99576.91;;;7.43;100.00
21129;BME280;10722;51.910;8.352;2022-11-18T09:20:27;99578.63;;;7.42;100.00
21129;BME280;10722;51.910;8.352;2022-11-18T09:23:13;99580.34;;;7.43;100.00
21129;BME280;10722;51.910;8.352;2022-11-18T09:26:00;99580.34;;;7.43;100.00
21129;BME280;10722;51.910;8.352;2022-11-18T09:28:46;99582.22;;;7.55;100.00
21129;BME280;10722;51.910;8.352;2022-11-18T09:31:31;99582.25;;;7.58;100.00
21129;BME280;10722;51.910;8.352;2022-11-18T09:34:17;99588.34;;;7.63;100.00
21129;BME280;10722;51.910;8.352;2022-11-18T09:37:05;99583.06;;;7.54;100.00
21129;BME280;10722;51.910;8.352;2022-11-18T09:39:51;99589.91;;;7.53;100.00
21129;BME280;10722;51.910;8.352;2022-11-18T09:45:37;99588.25;;;7.57;100.00
21129;BME280;10722;51.910;8.352;2022-11-18T09:48:25;99598.63;;;7.64;100.00
21129;BME280;10722;51.910;8.352;2022-11-18T09:51:11;99599.53;;;7.68;100.00
21129;BME280;10722;51.910;8.352;2022-11-18T09:53:56;99602.03;;;7.60;100.00
21129;BME280;10722;51.910;8.352;2022-11-18T09:56:41;99598.63;;;7.64;100.00
21129;BME280;10722;51.910;8.352;2022-11-18T09:59:30;99601.13;;;7.60;100.00
21129;BME280;10722;51.910;8.352;2022-11-18T10:02:27;99611.50;;;7.63;100.00
21129;BME280;10722;51.910;8.352;2022-11-18T10:05:17;99603.81;;;7.68;100.00
21129;BME280;10722;51.910;8.352;2022-11-18T10:11:17;99609.53;;;7.42;100.00
21129;BME280;10722;51.910;8.352;2022-11-18T10:17:30;99613.66;;;7.31;100.00
21129;BME280;10722;51.910;8.352;2022-11-18T10:20:27;99613.81;;;7.43;100.00
21129;BME280;10722;51.910;8.352;2022-11-18T10:23:27;99627.59;;;7.47;100.00
21129;BME280;10722;51.910;8.352;2022-11-18T10:26:13;99626.78;;;7.49;100.00
21129;BME280;10722;51.910;8.352;2022-11-18T10:28:58;99624.38;;;7.64;100.00
21129;BME280;10722;51.910;8.352;2022-11-18T10:31:53;99637.25;;;7.63;100.00
21129;BME280;10722;51.910;8.352;2022-11-18T10:34:56;99637.06;;;7.49;100.00
21129;BME280;10722;51.910;8.352;2022-11-18T10:37:41;99625.91;;;7.50;100.00
21129;BME280;10722;51.910;8.352;2022-11-18T10:41:02;99632.91;;;7.60;100.00
21129;BME280;10722;51.910;8.352;2022-11-18T10:43:55;99633.00;;;7.67;100.00
21129;BME280;10722;51.910;8.352;2022-11-18T10:46:40;99633.75;;;7.58;100.00
21129;BME280;10722;51.910;8.352;2022-11-18T10:49:26;99629.50;;;7.61;100.00
21129;BME280;10722;51.910;8.352;2022-11-18T10:52:13;99635.47;;;7.59;100.00
21129;BME280;10722;51.910;8.352;2022-11-18T10:55:28;99634.81;;;7.75;100.00
21129;BME280;10722;51.910;8.352;2022-11-18T10:58:14;99641.59;;;7.70;100.00
21129;BME280;10722;51.910;8.352;2022-11-18T11:01:24;99643.19;;;7.59;100.00
21129;BME280;10722;51.910;8.352;2022-11-18T11:04:22;99643.19;;;7.59;100.00
21129;BME280;10722;51.910;8.352;2022-11-18T11:07:22;99642.31;;;7.58;100.00
21129;BME280;10722;51.910;8.352;2022-11-18T11:13:04;99647.53;;;7.64;100.00
21129;BME280;10722;51.910;8.352;2022-11-18T11:15:57;99640.53;;;7.54;100.00
21129;BME280;10722;51.910;8.352;2022-11-18T11:18:45;99641.44;;;7.55;100.00
21129;BME280;10722;51.910;8.352;2022-11-18T11:21:35;99643.91;;;7.47;100.00
21129;BME280;10722;51.910;8.352;2022-11-18T11:24:23;99644.88;;;7.57;100.00
21129;BME280;10722;51.910;8.352;2022-11-18T11:30:45;99648.81;;;7.30;100.00
21129;BME280;10722;51.910;8.352;2022-11-18T11:33:46;99656.63;;;7.35;100.00
21129;BME280;10722;51.910;8.352;2022-11-18T11:36:49;99655.06;;;7.48;100.00
21129;BME280;10722;51.910;8.352;2022-11-18T11:45:53;99658.81;;;7.07;100.00
21129;BME280;10722;51.910;8.352;2022-11-18T11:52:04;99665.00;;;7.23;100.00
21129;BME280;10722;51.910;8.352;2022-11-18T11:55:01;99663.38;;;7.28;100.00
21129;BME280;10722;51.910;8.352;2022-11-18T12:04:33;99659.63;;;7.05;100.00
21129;BME280;10722;51.910;8.352;2022-11-18T12:07:27;99661.16;;;6.93;100.00
21129;BME280;10722;51.910;8.352;2022-11-18T12:10:22;99662.91;;;6.96;100.00
21129;BME280;10722;51.910;8.352;2022-11-18T12:16:30;99676.00;;;7.11;100.00
21129;BME280;10722;51.910;8.352;2022-11-18T12:19:20;99667.28;;;7.03;100.00
21129;BME280;10722;51.910;8.352;2022-11-18T12:22:06;99668.84;;;6.90;100.00
21129;BME280;10722;51.910;8.352;2022-11-18T12:24:51;99669.53;;;6.80;100.00
21129;BME280;10722;51.910;8.352;2022-11-18T12:30:21;99673.81;;;6.80;100.00
21129;BME280;10722;51.910;8.352;2022-11-18T12:33:14;99683.13;;;6.74;100.00
21129;BME280;10722;51.910;8.352;2022-11-18T12:36:00;99680.38;;;6.64;100.00
21129;BME280;10722;51.910;8.352;2022-11-18T12:38:46;99683.78;;;6.61;100.00
21129;BME280;10722;51.910;8.352;2022-11-18T12:44:27;99680.16;;;6.50;100.00
21129;BME280;10722;51.910;8.352;2022-11-18T12:50:45;99708.75;;;6.20;100.00
21129;BME280;10722;51.910;8.352;2022-11-18T12:56:30;99709.50;;;6.16;100.00
21129;BME280;10722;51.910;8.352;2022-11-18T12:59:26;99717.97;;;6.10;100.00
21129;BME280;10722;51.910;8.352;2022-11-18T13:05:06;99722.50;;;6.23;100.00
21129;BME280;10722;51.910;8.352;2022-11-18T13:08:09;99734.44;;;6.21;100.00
21129;BME280;10722;51.910;8.352;2022-11-18T13:11:04;99739.63;;;6.24;100.00
21129;BME280;10722;51.910;8.352;2022-11-18T13:13:53;99735.47;;;6.29;100.00
21129;BME280;10722;51.910;8.352;2022-11-18T13:16:38;99736.09;;;6.19;100.00
21129;BME280;10722;51.910;8.352;2022-11-18T13:19:24;99736.03;;;6.15;100.00
21129;BME280;10722;51.910;8.352;2022-11-18T13:22:16;99734.09;;;6.03;100.00
21129;BME280;10722;51.910;8.352;2022-11-18T13:25:04;99729.31;;;5.80;100.00
21129;BME280;10722;51.910;8.352;2022-11-18T13:31:12;99726.81;;;5.83;100.00
21129;BME280;10722;51.910;8.352;2022-11-18T13:34:07;99738.81;;;5.84;100.00
21129;BME280;10722;51.910;8.352;2022-11-18T13:36:58;99729.47;;;5.88;100.00
21129;BME280;10722;51.910;8.352;2022-11-18T13:39:45;99734.63;;;5.90;100.00
21129;BME280;10722;51.910;8.352;2022-11-18T13:42:31;99739.78;;;5.90;100.00
21129;BME280;10722;51.910;8.352;2022-11-18T13:45:18;99747.38;;;5.85;100.00
21129;BME280;10722;51.910;8.352;2022-11-18T13:48:11;99755.88;;;5.82;100.00
21129;BME280;10722;51.910;8.352;2022-11-18T13:50:59;99749.81;;;5.77;100.00
21129;BME280;10722;51.910;8.352;2022-11-18T13:53:45;99744.56;;;5.74;100.00
21129;BME280;10722;51.910;8.352;2022-11-18T13:56:31;99746.88;;;5.62;100.00
21129;BME280;10722;51.910;8.352;2022-11-18T13:59:21;99750.16;;;5.55;100.00
21129;BME280;10722;51.910;8.352;2022-11-18T14:02:11;99751.81;;;5.53;100.00
21129;BME280;10722;51.910;8.352;2022-11-18T14:04:58;99757.94;;;5.59;100.00
21129;BME280;10722;51.910;8.352;2022-11-18T14:10:45;99773.53;;;5.69;100.00
21129;BME280;10722;51.910;8.352;2022-11-18T14:13:48;99790.88;;;5.77;100.00
21129;BME280;10722;51.910;8.352;2022-11-18T14:16:40;99784.38;;;5.55;100.00
21129;BME280;10722;51.910;8.352;2022-11-18T14:19:30;99777.13;;;5.37;100.00
21129;BME280;10722;51.910;8.352;2022-11-18T14:22:22;99775.03;;;5.21;100.00
21129;BME280;10722;51.910;8.352;2022-11-18T14:25:15;99778.97;;;5.07;100.00
21129;BME280;10722;51.910;8.352;2022-11-18T14:34:24;99792.75;;;5.12;100.00
21129;BME280;10722;51.910;8.352;2022-11-18T14:37:12;99791.06;;;5.12;100.00
21129;BME280;10722;51.910;8.352;2022-11-18T14:39:57;99799.84;;;5.22;100.00
21129;BME280;10722;51.910;8.352;2022-11-18T14:42:42;99809.34;;;5.26;100.00
21129;BME280;10722;51.910;8.352;2022-11-18T14:45:28;99813.47;;;5.20;100.00
21129;BME280;10722;51.910;8.352;2022-11-18T14:48:16;99816.59;;;5.08;100.00
21129;BME280;10722;51.910;8.352;2022-11-18T14:51:02;99818.94;;;4.99;100.00
21129;BME280;10722;51.910;8.352;2022-11-18T14:53:47;99822.84;;;4.84;100.00
21129;BME280;10722;51.910;8.352;2022-11-18T14:56:33;99815.66;;;4.71;100.00
21129;BME280;10722;51.910;8.352;2022-11-18T14:59:19;99826.00;;;4.76;100.00
21129;BME280;10722;51.910;8.352;2022-11-18T15:02:10;99832.78;;;4.74;100.00
21129;BME280;10722;51.910;8.352;2022-11-18T15:04:56;99829.19;;;4.67;100.00
21129;BME280;10722;51.910;8.352;2022-11-18T15:07:41;99829.72;;;4.55;100.00
21129;BME280;10722;51.910;8.352;2022-11-18T15:10:27;99829.63;;;4.51;100.00
21129;BME280;10722;51.910;8.352;2022-11-18T15:13:12;99839.31;;;4.62;100.00
21129;BME280;10722;51.910;8.352;2022-11-18T15:15:57;99843.38;;;4.54;100.00
21129;BME280;10722;51.910;8.352;2022-11-18T15:18:45;99841.66;;;4.55;100.00
21129;BME280;10722;51.910;8.352;2022-11-18T15:21:32;99840.97;;;4.60;100.00
21129;BME280;10722;51.910;8.352;2022-11-18T15:24:17;99843.94;;;4.44;100.00
21129;BME280;10722;51.910;8.352;2022-11-18T15:27:03;99847.25;;;4.40;100.00
21129;BME280;10722;51.910;8.352;2022-11-18T15:29:48;99847.78;;;4.30;100.00
21129;BME280;10722;51.910;8.352;2022-11-18T15:32:33;99857.00;;;4.23;100.00
21129;BME280;10722;51.910;8.352;2022-11-18T15:35:18;99857.19;;;4.31;100.00
21129;BME280;10722;51.910;8.352;2022-11-18T15:38:04;99854.53;;;4.26;100.00
21129;BME280;10722;51.910;8.352;2022-11-18T15:40:49;99870.00;;;4.31;100.00
21129;BME280;10722;51.910;8.352;2022-11-18T15:43:34;99873.22;;;4.23;100.00
21129;BME280;10722;51.910;8.352;2022-11-18T15:46:21;99871.72;;;4.01;100.00
21129;BME280;10722;51.910;8.352;2022-11-18T15:49:06;99868.47;;;4.07;100.00
21129;BME280;10722;51.910;8.352;2022-11-18T15:51:55;99871.78;;;4.03;100.00
21129;BME280;10722;51.910;8.352;2022-11-18T15:54:40;99871.78;;;4.03;100.00
21129;BME280;10722;51.910;8.352;2022-11-18T15:57:25;99879.41;;;4.01;100.00
21129;BME280;10722;51.910;8.352;2022-11-18T16:00:11;99873.06;;;3.89;100.00
21129;BME280;10722;51.910;8.352;2022-11-18T16:02:56;99870.63;;;3.93;100.00
21129;BME280;10722;51.910;8.352;2022-11-18T16:05:41;99870.06;;;3.75;100.00
21129;BME280;10722;51.910;8.352;2022-11-18T16:08:28;99871.88;;;3.79;100.00
21129;BME280;10722;51.910;8.352;2022-11-18T16:11:15;99881.28;;;3.80;100.00
21129;BME280;10722;51.910;8.352;2022-11-18T16:14:01;99886.19;;;3.72;100.00